Airfield :
LOGIN :

Register | Disclaimer

   EN    FR    IT 

 










Legend :    VFR   Marginal VFR   IFR   Intensive IFR   Very Intensive IFR
Visi :
Ceiling :
>= 8 km
>= 3000ft
5 to 8 km
1000 to 3000 ft
1500m to 5 km
500 to 1000 ft
800 to 1500m
200 to 500 ft
< 800m
< 200 ft
Symbols :   Thunderstorms  Fog  Heavy snow  Heavy precipitations  Wind > 20 kt
SIGMETs :     Misc.  Thunderstorms  Icing  Turbulence  Mountain Waves  Volcanic Ashes







- Airport Elevation : 202 ft
- IATA code : LGW
- Download approach charts


EGKK - London Gatwick

CURRENT METAR :
  • 210720Z 13007KT 9999 FEW018 SCT032 02/02 Q1008

EXPIRED METARs :
  • 210650Z 13005KT 100V160 9999 FEW030 02/01 Q1008
  • 210620Z 13006KT 110V180 9999 FEW030 02/01 Q1007
  • 210550Z VRB03KT 8000 FEW010 01/01 Q1007
  • 210520Z 12005KT 8000 FEW007 01/01 Q1006
  • 210450Z VRB03KT 3500 BR FEW005 01/01 Q1006
  • 210420Z 07003KT 3000 BR FEW008 01/01 Q1006

TAF AMD TAF EGKK
Valid from the 21 at 06:00 until the 22 at 12:00 UTC


210616Z 2106/2212 10009KT 9999 BKN025
TEMPO 2106/2109 3000 -SHRA BR BKN003
PROB30
TEMPO 2202/2212 8000 -SHRA BKN012
No reported NOTAMs for that airfield.



MET'MAP, your aeronautical weather chart ! - Copyright ORBIFLY December 2007 - Disclaimer

ORBIFLY MET'MAP TEAM :

Programming & Development : Alexandra Zaïnal
Concept & Development : Baudouin d'Aumeries
Co-Development & Prog : Marc-Olivier Méhu
Technical & hardware support : Manuel Goepfert

Contact : metmap@orbifly.com




SOURCES & CREDITS :

   NOAA